Time;durP1;ratioP1;P1;durP2;ratioP2;P2;SDS_P1;SDS_P2;PMS_P1;PMS_P2;Temp;Humidity;BMP_temperature;BMP_pressure;BME280_temperature;BME280_humidity;BME280_pressure;Samples;Min_cycle;Max_cycle;Signal;HPM_P1;HPM_P2
2022/06/29 00:01:15;;;;;;;14.30;11.75;;;19.00;99.90;;;;;;5035076;28;20038;-76
2022/06/29 00:03:41;;;;;;;14.73;11.55;;;19.00;99.90;;;;;;5052959;28;20029;-77
2022/06/29 00:06:07;;;;;;;15.18;13.25;;;18.90;99.90;;;;;;5052989;28;20045;-75
2022/06/29 00:08:32;;;;;;;15.77;12.90;;;18.90;99.90;;;;;;5034871;28;20036;-77
2022/06/29 00:10:58;;;;;;;16.23;13.57;;;18.80;99.90;;;;;;5045345;28;20036;-75
2022/06/29 00:13:24;;;;;;;15.85;14.00;;;18.80;99.90;;;;;;5055103;28;20032;-76
2022/06/29 00:15:49;;;;;;;14.82;13.25;;;18.80;99.90;;;;;;5054804;28;20020;-74
2022/06/29 00:18:15;;;;;;;14.88;13.23;;;18.80;99.90;;;;;;5072761;28;20398;-74
2022/06/29 00:20:41;;;;;;;16.55;12.52;;;18.70;99.90;;;;;;5054757;28;20035;-77
2022/06/29 00:23:07;;;;;;;16.17;12.85;;;18.70;99.90;;;;;;5054878;28;20028;-75
2022/06/29 00:25:32;;;;;;;16.70;13.18;;;18.70;99.90;;;;;;5057198;28;20028;-75
2022/06/29 00:27:58;;;;;;;16.23;13.43;;;18.70;99.90;;;;;;5076683;28;20471;-76
2022/06/29 00:30:24;;;;;;;16.70;12.65;;;18.70;99.90;;;;;;5076514;28;20040;-76
2022/06/29 00:32:49;;;;;;;13.77;12.48;;;18.70;99.90;;;;;;5058667;28;20461;-75
2022/06/29 00:35:15;;;;;;;14.02;12.48;;;18.60;99.90;;;;;;5075815;28;20531;-77
2022/06/29 00:37:41;;;;;;;14.50;12.98;;;18.60;99.90;;;;;;5066662;28;20028;-78
2022/06/29 00:40:07;;;;;;;15.55;11.93;;;18.60;99.90;;;;;;5038551;28;20075;-75
2022/06/29 00:42:33;;;;;;;15.23;13.10;;;18.60;99.90;;;;;;5038468;28;20063;-75
2022/06/29 00:44:59;;;;;;;15.90;14.15;;;18.50;99.90;;;;;;5038255;28;20025;-77
2022/06/29 00:47:25;;;;;;;16.77;13.50;;;18.50;99.90;;;;;;5056206;28;20029;-75
2022/06/29 00:49:50;;;;;;;19.02;14.93;;;18.50;99.90;;;;;;5038278;28;20023;-77
2022/06/29 00:52:18;;;;;;;18.70;15.25;;;18.50;99.90;;;;;;5056257;28;20017;-77
2022/06/29 00:54:46;;;;;;;19.17;16.00;;;18.50;99.90;;;;;;5056130;28;20048;-75
2022/06/29 00:57:24;;;;;;;16.90;14.10;;;18.50;99.90;;;;;;5037984;28;20449;-77
2022/06/29 00:59:52;;;;;;;20.00;15.88;;;18.50;99.90;;;;;;5056062;28;20029;-76
2022/06/29 01:02:25;;;;;;;16.83;15.10;;;18.50;99.90;;;;;;5055817;28;20025;-75
2022/06/29 01:04:52;;;;;;;14.25;12.80;;;18.50;99.90;;;;;;5055876;28;20031;-75
2022/06/29 01:07:22;;;;;;;19.42;16.90;;;18.50;99.90;;;;;;5037812;28;20037;-75
2022/06/29 01:09:48;;;;;;;16.55;14.82;;;18.50;99.90;;;;;;5039202;28;20474;-75
2022/06/29 01:12:14;;;;;;;19.92;17.08;;;18.60;99.90;;;;;;5075677;28;20039;-78
2022/06/29 01:14:45;;;;;;;18.27;16.27;;;18.60;99.90;;;;;;5075776;28;20570;-75
2022/06/29 01:17:12;;;;;;;22.85;18.90;;;18.50;99.90;;;;;;5057617;28;20110;-75
2022/06/29 01:19:38;;;;;;;28.77;19.27;;;18.50;99.90;;;;;;5075807;28;20051;-75
2022/06/29 01:22:17;;;;;;;23.90;19.88;;;18.50;99.90;;;;;;5075400;28;20112;-75
2022/06/29 01:24:44;;;;;;;23.98;19.35;;;18.40;99.90;;;;;;5075669;28;20459;-77
2022/06/29 01:27:11;;;;;;;25.48;19.67;;;18.40;99.90;;;;;;5075515;28;20024;-75
2022/06/29 01:29:39;;;;;;;27.75;22.30;;;18.30;99.90;;;;;;5075551;28;20020;-76
2022/06/29 01:32:06;;;;;;;30.40;23.95;;;18.30;99.90;;;;;;5075307;28;20500;-77
2022/06/29 01:34:32;;;;;;;33.65;24.75;;;18.20;99.90;;;;;;5075286;28;20082;-76
2022/06/29 01:36:59;;;;;;;34.88;26.80;;;18.20;99.90;;;;;;5070339;28;20029;-75
2022/06/29 01:39:26;;;;;;;40.13;27.27;;;18.10;99.90;;;;;;5055303;28;20029;-76
2022/06/29 01:41:52;;;;;;;36.65;27.52;;;18.00;99.90;;;;;;5037312;28;20031;-77
2022/06/29 01:44:18;;;;;;;37.38;27.48;;;17.90;99.90;;;;;;5037275;28;20025;-74
2022/06/29 01:46:43;;;;;;;34.70;26.77;;;17.90;99.90;;;;;;5055103;28;20029;-75
2022/06/29 01:49:09;;;;;;;36.97;27.98;;;17.80;99.90;;;;;;5037298;28;20462;-77
2022/06/29 01:51:35;;;;;;;37.20;28.65;;;17.90;99.90;;;;;;5037151;28;20033;-77
2022/06/29 01:54:01;;;;;;;38.70;29.13;;;17.90;99.90;;;;;;5037110;28;20021;-76
2022/06/29 01:56:27;;;;;;;40.05;28.98;;;17.90;99.90;;;;;;5054835;28;20096;-75
2022/06/29 01:58:52;;;;;;;42.13;30.63;;;17.90;99.90;;;;;;5037102;28;20534;-76
2022/06/29 02:01:18;;;;;;;41.60;28.38;;;17.90;99.90;;;;;;5036907;28;20029;-76
2022/06/29 02:03:44;;;;;;;38.72;29.17;;;18.00;99.90;;;;;;5054907;28;20104;-76
2022/06/29 02:06:10;;;;;;;38.85;28.27;;;18.00;99.90;;;;;;5036887;28;20507;-77
2022/06/29 02:08:36;;;;;;;39.28;28.73;;;18.00;99.90;;;;;;5036821;28;20402;-77
2022/06/29 02:11:02;;;;;;;40.55;29.15;;;18.00;99.90;;;;;;5066320;28;20017;-77
2022/06/29 02:13:29;;;;;;;38.33;27.90;;;18.00;99.90;;;;;;5074460;28;20466;-75
2022/06/29 02:15:54;;;;;;;39.53;27.70;;;18.00;99.90;;;;;;5056710;28;20020;-77
2022/06/29 02:18:21;;;;;;;39.15;30.23;;;18.00;99.90;;;;;;5074429;28;20059;-77
2022/06/29 02:20:47;;;;;;;38.42;28.33;;;17.90;99.90;;;;;;5056571;28;20035;-76
2022/06/29 02:23:13;;;;;;;38.42;28.70;;;17.90;99.90;;;;;;5074327;28;20370;-77
2022/06/29 02:25:38;;;;;;;38.30;28.83;;;17.90;99.90;;;;;;5074392;28;20085;-77
2022/06/29 02:28:04;;;;;;;40.67;28.85;;;17.90;99.90;;;;;;5056286;28;20386;-77
2022/06/29 02:35:59;;;;;;;39.33;28.92;;;18.00;99.90;;;;;;5074501;28;20067;-77
2022/06/29 02:38:24;;;;;;;38.17;27.30;;;18.10;99.90;;;;;;5057632;28;20064;-76
2022/06/29 02:40:50;;;;;;;39.72;29.88;;;18.10;99.90;;;;;;5019715;28;20498;-77
2022/06/29 02:43:16;;;;;;;40.65;29.77;;;18.20;99.90;;;;;;5054097;28;20021;-76
2022/06/29 02:45:41;;;;;;;42.03;28.00;;;18.20;99.90;;;;;;5054077;28;20398;-76
2022/06/29 02:48:07;;;;;;;34.08;28.27;;;18.30;99.90;;;;;;5035890;28;20489;-77
2022/06/29 02:50:33;;;;;;;37.75;28.90;;;18.30;99.90;;;;;;5053868;28;20032;-76
2022/06/29 02:52:59;;;;;;;37.78;29.15;;;18.30;99.90;;;;;;5035960;28;20025;-78
2022/06/29 02:55:24;;;;;;;39.35;29.83;;;18.30;99.90;;;;;;5035902;28;20025;-78
2022/06/29 02:57:50;;;;;;;36.03;26.30;;;18.30;99.90;;;;;;5053686;28;20037;-78
2022/06/29 03:00:16;;;;;;;36.40;27.00;;;18.30;99.90;;;;;;5053859;28;20109;-76
2022/06/29 03:02:42;;;;;;;31.48;23.85;;;18.40;99.90;;;;;;5035709;28;20017;-78
2022/06/29 03:05:08;;;;;;;34.22;26.92;;;18.50;99.90;;;;;;5035589;28;20028;-76
2022/06/29 03:07:34;;;;;;;34.63;26.55;;;18.40;99.90;;;;;;5053447;28;20387;-76
2022/06/29 03:09:59;;;;;;;32.50;25.25;;;18.50;99.90;;;;;;5056897;28;20029;-76
2022/06/29 03:12:25;;;;;;;39.00;26.40;;;18.50;99.90;;;;;;5073448;28;20371;-77
2022/06/29 03:14:51;;;;;;;36.65;25.88;;;18.50;99.90;;;;;;5073615;28;20452;-77
2022/06/29 03:17:16;;;;;;;39.17;27.33;;;18.50;99.90;;;;;;5055470;28;20032;-76
2022/06/29 03:19:42;;;;;;;37.65;26.13;;;18.50;99.90;;;;;;5055511;28;20029;-77
2022/06/29 03:22:08;;;;;;;36.95;25.75;;;18.60;99.90;;;;;;5073295;28;20068;-78
2022/06/29 03:24:34;;;;;;;36.58;27.13;;;18.60;99.90;;;;;;5073310;28;20028;-76
2022/06/29 03:26:59;;;;;;;32.85;25.33;;;18.50;99.90;;;;;;5055387;28;20425;-76
2022/06/29 03:29:25;;;;;;;35.58;26.17;;;18.50;99.90;;;;;;5055278;28;20024;-77
2022/06/29 03:31:51;;;;;;;33.90;25.52;;;18.50;99.90;;;;;;5073411;28;20012;-76
2022/06/29 03:34:17;;;;;;;32.05;25.00;;;18.40;99.90;;;;;;5055301;28;20043;-77
2022/06/29 03:36:42;;;;;;;32.40;25.30;;;18.50;99.90;;;;;;5052682;28;20478;-75
2022/06/29 03:39:08;;;;;;;36.25;26.65;;;18.50;99.90;;;;;;5053249;28;20025;-77
2022/06/29 03:41:34;;;;;;;30.83;23.42;;;18.50;99.90;;;;;;5035263;28;20473;-76
2022/06/29 03:44:00;;;;;;;37.67;26.33;;;18.40;99.90;;;;;;5053123;28;20063;-76
2022/06/29 03:46:25;;;;;;;30.70;24.08;;;18.50;99.90;;;;;;5035196;28;20459;-75
2022/06/29 03:48:51;;;;;;;34.08;24.63;;;18.50;99.90;;;;;;5035273;28;20495;-76
2022/06/29 03:51:17;;;;;;;41.47;24.60;;;18.50;99.90;;;;;;5035199;28;20486;-77
2022/06/29 03:53:42;;;;;;;31.20;24.00;;;18.50;99.90;;;;;;5052908;28;20017;-78
2022/06/29 03:56:08;;;;;;;29.08;22.05;;;18.50;99.90;;;;;;5035150;28;20119;-78
2022/06/29 03:58:34;;;;;;;31.70;23.25;;;18.60;99.90;;;;;;5052864;28;20040;-77
2022/06/29 04:00:59;;;;;;;32.05;23.48;;;18.60;99.90;;;;;;5038521;28;20064;-78
2022/06/29 04:03:25;;;;;;;30.08;23.42;;;18.50;99.90;;;;;;5057143;28;20040;-75
2022/06/29 04:05:51;;;;;;;32.30;23.80;;;18.60;99.90;;;;;;5056799;28;20052;-78
2022/06/29 04:08:17;;;;;;;31.60;21.77;;;18.60;99.90;;;;;;5056918;28;20021;-77
2022/06/29 04:10:43;;;;;;;28.63;22.50;;;18.60;99.90;;;;;;5066508;28;20074;-75
2022/06/29 04:13:08;;;;;;;31.17;23.77;;;18.60;99.90;;;;;;5058909;28;20029;-76
2022/06/29 04:15:35;;;;;;;30.90;23.40;;;18.70;99.90;;;;;;5058968;28;20063;-78
2022/06/29 04:18:01;;;;;;;31.25;23.15;;;18.70;99.90;;;;;;5058589;28;20036;-79
2022/06/29 04:23:11;;;;;;;31.30;22.40;;;18.70;99.90;;;;;;5076985;28;20539;-78
2022/06/29 04:25:37;;;;;;;30.58;24.10;;;18.50;99.90;;;;;;5076771;28;20024;-78
2022/06/29 04:28:02;;;;;;;33.50;24.20;;;18.50;99.90;;;;;;5076658;28;20051;-78
2022/06/29 04:30:28;;;;;;;30.77;22.63;;;18.60;99.90;;;;;;5058201;28;20028;-79
2022/06/29 04:32:54;;;;;;;29.77;22.48;;;18.60;99.90;;;;;;5076637;28;20040;-77
2022/06/29 04:35:21;;;;;;;33.22;22.40;;;18.60;99.90;;;;;;5058283;28;20020;-78
2022/06/29 04:37:47;;;;;;;34.42;24.27;;;18.70;99.90;;;;;;5064650;28;20032;-78
2022/06/29 04:40:12;;;;;;;31.88;24.05;;;18.70;99.90;;;;;;5056282;28;20067;-78
2022/06/29 04:42:38;;;;;;;33.33;24.08;;;18.70;99.90;;;;;;5056286;28;20455;-75
2022/06/29 04:45:04;;;;;;;33.17;24.00;;;18.70;99.90;;;;;;5038393;28;20044;-78
2022/06/29 04:47:30;;;;;;;34.92;23.75;;;18.80;99.90;;;;;;5038408;28;20406;-75
2022/06/29 04:49:56;;;;;;;37.72;25.10;;;18.70;99.90;;;;;;5038223;28;20017;-79
2022/06/29 04:52:24;;;;;;;34.20;24.13;;;18.70;99.90;;;;;;5056012;28;20383;-79
2022/06/29 04:54:50;;;;;;;32.47;22.50;;;18.60;99.90;;;;;;5056110;28;20450;-75
2022/06/29 04:57:16;;;;;;;44.08;25.23;;;18.70;99.90;;;;;;5038225;28;20391;-76
2022/06/29 04:59:42;;;;;;;39.95;25.58;;;18.60;99.90;;;;;;5038072;28;20028;-78
2022/06/29 05:02:07;;;;;;;39.08;27.00;;;18.60;99.90;;;;;;5038328;28;20471;-76
2022/06/29 05:04:33;;;;;;;36.67;24.73;;;18.60;99.90;;;;;;5037896;28;20056;-75
2022/06/29 05:06:59;;;;;;;33.22;23.63;;;18.60;99.90;;;;;;5037985;28;20194;-75
2022/06/29 05:09:24;;;;;;;36.53;24.30;;;18.60;99.90;;;;;;5037915;28;20044;-77
2022/06/29 05:11:50;;;;;;;33.67;25.60;;;18.70;99.90;;;;;;5073484;28;20024;-78
2022/06/29 05:14:16;;;;;;;31.75;22.67;;;18.80;99.90;;;;;;5075662;28;20099;-77
2022/06/29 05:16:42;;;;;;;33.25;24.25;;;19.00;99.90;;;;;;5075848;28;20417;-76
2022/06/29 05:19:07;;;;;;;36.72;24.10;;;19.10;99.90;;;;;;5075787;28;20028;-77
2022/06/29 05:21:33;;;;;;;30.00;22.00;;;19.30;99.90;;;;;;5057388;28;20025;-75
2022/06/29 05:23:59;;;;;;;33.25;22.40;;;19.30;99.90;;;;;;5073329;28;20767;-78
2022/06/29 05:26:25;;;;;;;27.08;20.27;;;19.30;99.90;;;;;;5073588;28;20024;-78
2022/06/29 05:28:51;;;;;;;31.40;23.90;;;19.40;99.90;;;;;;5057186;28;20024;-76
2022/06/29 05:31:17;;;;;;;36.30;24.08;;;19.40;99.90;;;;;;5057162;28;20090;-75
2022/06/29 05:33:43;;;;;;;32.55;24.17;;;19.40;99.90;;;;;;5057304;28;20024;-76
2022/06/29 05:36:10;;;;;;;31.95;22.85;;;19.50;99.90;;;;;;5057341;28;20493;-77
2022/06/29 05:38:37;;;;;;;33.03;24.05;;;19.50;99.90;;;;;;5045073;28;20094;-76
2022/06/29 05:41:03;;;;;;;32.22;23.77;;;19.60;99.90;;;;;;5051281;28;20030;-76
2022/06/29 05:43:30;;;;;;;30.85;21.05;;;19.60;99.90;;;;;;5056193;28;20039;-75
2022/06/29 05:45:56;;;;;;;30.33;22.17;;;19.80;99.90;;;;;;5074006;28;20020;-76
2022/06/29 05:48:25;;;;;;;24.80;19.42;;;19.80;99.90;;;;;;5073942;28;20567;-75
2022/06/29 05:50:51;;;;;;;29.58;22.05;;;20.00;99.90;;;;;;5055664;28;20033;-77
2022/06/29 05:53:16;;;;;;;29.55;22.30;;;20.20;99.90;;;;;;5055573;28;20032;-75
2022/06/29 05:55:43;;;;;;;28.65;21.73;;;20.30;99.90;;;;;;5073614;28;20023;-75
2022/06/29 05:58:08;;;;;;;30.88;22.98;;;20.40;99.90;;;;;;5073797;28;20048;-76
2022/06/29 06:00:35;;;;;;;31.77;22.50;;;20.60;99.90;;;;;;5073862;28;20021;-76
2022/06/29 06:03:00;;;;;;;29.65;23.17;;;20.60;99.90;;;;;;5074336;28;20037;-76
2022/06/29 06:05:26;;;;;;;28.27;20.45;;;20.60;99.90;;;;;;5065586;28;20023;-75
2022/06/29 06:07:52;;;;;;;31.48;23.20;;;20.80;99.90;;;;;;5035859;28;20043;-77
2022/06/29 06:10:18;;;;;;;28.00;21.02;;;20.80;99.90;;;;;;5045623;28;20069;-77
2022/06/29 06:12:44;;;;;;;28.35;21.25;;;20.80;99.90;;;;;;5073459;28;20475;-78
2022/06/29 06:15:09;;;;;;;27.27;21.48;;;20.80;99.90;;;;;;5073572;28;20025;-75
2022/06/29 06:17:35;;;;;;;26.20;20.58;;;20.80;99.90;;;;;;5056295;28;20504;-75
2022/06/29 06:20:02;;;;;;;25.65;20.52;;;20.90;99.90;;;;;;5072282;28;20111;-75
2022/06/29 06:22:28;;;;;;;29.30;21.15;;;20.90;99.90;;;;;;5052590;28;20047;-75
2022/06/29 06:24:53;;;;;;;28.83;19.80;;;21.00;99.90;;;;;;5070811;28;20098;-77
2022/06/29 06:27:20;;;;;;;29.63;21.60;;;20.90;99.90;;;;;;5072625;28;20021;-75
2022/06/29 06:29:46;;;;;;;28.45;20.35;;;21.00;99.90;;;;;;5073098;28;20474;-78
2022/06/29 06:32:12;;;;;;;27.15;20.70;;;21.00;99.90;;;;;;5073467;28;20073;-77
2022/06/29 06:34:37;;;;;;;25.65;20.83;;;21.00;99.90;;;;;;5055813;28;20028;-76
2022/06/29 06:37:04;;;;;;;28.63;21.55;;;21.00;99.90;;;;;;5067894;28;20162;-77
2022/06/29 06:39:30;;;;;;;26.98;20.67;;;21.00;99.90;;;;;;5036214;28;20021;-76
2022/06/29 06:41:55;;;;;;;25.20;20.38;;;20.90;99.90;;;;;;5054133;28;20062;-78
2022/06/29 06:44:21;;;;;;;25.05;19.83;;;21.00;99.90;;;;;;5054302;28;20029;-77
2022/06/29 06:46:48;;;;;;;30.35;20.42;;;21.00;99.90;;;;;;5054084;28;20025;-76
2022/06/29 06:49:23;;;;;;;25.40;19.83;;;21.00;99.90;;;;;;5036390;28;20031;-76
2022/06/29 06:51:52;;;;;;;25.42;20.27;;;21.10;99.90;;;;;;5054079;28;20020;-76
2022/06/29 06:54:18;;;;;;;26.38;20.60;;;21.10;99.90;;;;;;5054242;28;20021;-76
2022/06/29 06:56:44;;;;;;;27.88;20.23;;;21.20;99.90;;;;;;5035958;28;20029;-76
2022/06/29 06:59:10;;;;;;;26.77;21.10;;;21.20;99.90;;;;;;5053973;28;20415;-77
2022/06/29 07:01:36;;;;;;;26.33;20.75;;;21.20;99.90;;;;;;5054086;28;20027;-76
2022/06/29 07:04:01;;;;;;;23.35;19.33;;;21.20;99.90;;;;;;5035943;28;20025;-76
2022/06/29 07:06:27;;;;;;;24.45;18.85;;;21.40;99.90;;;;;;5053748;28;20064;-76
2022/06/29 07:08:54;;;;;;;26.50;20.90;;;21.50;99.90;;;;;;5053981;28;20087;-76
2022/06/29 07:11:20;;;;;;;24.55;19.80;;;21.60;99.90;;;;;;5069418;28;20070;-77
2022/06/29 07:13:46;;;;;;;24.95;20.75;;;21.70;99.90;;;;;;5073841;28;20474;-77
2022/06/29 07:16:13;;;;;;;29.45;21.58;;;21.70;99.90;;;;;;5073658;28;20020;-77
2022/06/29 07:18:38;;;;;;;26.92;21.80;;;21.60;99.90;;;;;;5055534;28;20486;-76
2022/06/29 07:21:04;;;;;;;26.85;20.42;;;21.60;99.90;;;;;;5073561;28;20020;-77
2022/06/29 07:23:30;;;;;;;22.13;18.63;;;21.70;99.90;;;;;;5055601;28;20047;-76
2022/06/29 07:25:56;;;;;;;24.05;19.05;;;21.90;99.90;;;;;;5055537;28;20111;-77
2022/06/29 07:28:22;;;;;;;22.20;18.92;;;22.20;99.90;;;;;;5073650;28;20102;-77
2022/06/29 07:30:48;;;;;;;22.85;19.85;;;22.40;99.90;;;;;;5073534;28;20474;-77
2022/06/29 07:33:13;;;;;;;23.70;18.75;;;22.60;99.90;;;;;;5073437;28;20028;-77
2022/06/29 07:35:39;;;;;;;22.70;18.60;;;22.80;99.90;;;;;;5072537;28;20029;-77
2022/06/29 07:38:05;;;;;;;21.55;17.67;;;23.10;99.90;;;;;;5040078;28;20065;-77
2022/06/29 07:40:31;;;;;;;19.17;17.00;;;23.30;99.90;;;;;;5035446;28;20020;-77
2022/06/29 07:42:57;;;;;;;19.88;17.45;;;23.50;99.90;;;;;;5035401;28;20029;-78
2022/06/29 07:45:23;;;;;;;17.63;15.55;;;23.70;99.60;;;;;;5053570;28;20416;-77
2022/06/29 07:47:49;;;;;;;19.00;15.93;;;24.00;97.50;;;;;;5053281;28;20486;-77
2022/06/29 07:50:15;;;;;;;17.23;14.32;;;24.10;93.80;;;;;;5035350;28;20119;-77
2022/06/29 07:52:42;;;;;;;17.13;14.85;;;24.20;90.80;;;;;;5035288;28;20444;-77
2022/06/29 07:55:08;;;;;;;19.08;14.80;;;24.50;93.70;;;;;;5035353;28;20063;-78
2022/06/29 07:57:35;;;;;;;19.55;15.30;;;24.60;90.10;;;;;;5053153;28;20037;-77
2022/06/29 08:00:01;;;;;;;17.20;15.25;;;24.70;88.00;;;;;;5053089;28;20104;-76
2022/06/29 08:02:27;;;;;;;18.90;14.77;;;24.90;86.00;;;;;;5053131;28;20031;-77
2022/06/29 08:04:52;;;;;;;18.15;13.60;;;24.90;84.90;;;;;;5053147;28;20048;-77
2022/06/29 08:07:18;;;;;;;15.13;13.38;;;24.90;85.90;;;;;;5053196;28;20052;-76
2022/06/29 08:09:44;;;;;;;14.77;13.27;;;25.20;84.60;;;;;;5055956;28;20387;-76
2022/06/29 08:12:10;;;;;;;16.33;14.63;;;25.40;80.10;;;;;;5073159;28;20028;-77
2022/06/29 08:14:35;;;;;;;17.38;15.48;;;25.30;80.10;;;;;;5073415;28;20416;-77
2022/06/29 08:17:02;;;;;;;17.80;13.68;;;25.50;81.50;;;;;;5055323;28;20052;-77
2022/06/29 08:19:28;;;;;;;15.32;13.82;;;25.80;81.20;;;;;;5054826;28;20013;-76
2022/06/29 08:21:53;;;;;;;15.90;14.30;;;25.90;79.40;;;;;;5072902;28;20023;-76
2022/06/29 08:24:19;;;;;;;16.73;13.75;;;26.00;79.80;;;;;;5072953;28;20029;-76
2022/06/29 08:26:45;;;;;;;15.52;13.07;;;26.30;77.50;;;;;;5072976;28;20386;-77
2022/06/29 08:29:11;;;;;;;15.13;12.98;;;26.20;76.70;;;;;;5073017;28;20029;-76
2022/06/29 08:31:37;;;;;;;15.43;13.25;;;26.30;73.70;;;;;;5072769;28;20383;-76
2022/06/29 08:34:06;;;;;;;18.70;13.93;;;26.50;73.90;;;;;;5072630;28;20091;-76
2022/06/29 08:36:31;;;;;;;14.95;13.00;;;26.50;76.60;;;;;;5052253;28;20490;-76
2022/06/29 08:38:57;;;;;;;15.75;14.15;;;26.30;77.10;;;;;;5052760;28;20028;-76
2022/06/29 08:41:25;;;;;;;17.13;13.63;;;26.60;80.40;;;;;;5052837;28;20017;-76
2022/06/29 08:43:51;;;;;;;14.38;12.98;;;26.60;76.50;;;;;;5034856;28;20113;-76
2022/06/29 08:46:17;;;;;;;16.38;14.57;;;26.70;76.30;;;;;;5036995;28;20100;-76
2022/06/29 08:48:42;;;;;;;16.13;14.38;;;26.60;73.60;;;;;;5038556;28;20021;-76
2022/06/29 08:51:10;;;;;;;14.90;13.20;;;26.20;77.20;;;;;;5038674;28;20029;-76
2022/06/29 08:53:39;;;;;;;15.73;14.05;;;26.20;78.40;;;;;;5056339;28;20082;-77
2022/06/29 08:56:05;;;;;;;13.95;12.48;;;26.30;79.80;;;;;;5038650;28;20391;-77
2022/06/29 08:58:32;;;;;;;14.82;13.25;;;26.60;79.30;;;;;;5038308;28;20025;-77
2022/06/29 09:00:58;;;;;;;14.73;13.30;;;26.50;76.70;;;;;;5038344;28;20025;-76
2022/06/29 09:03:24;;;;;;;14.80;12.98;;;26.50;78.00;;;;;;5056216;28;20094;-76
2022/06/29 09:05:51;;;;;;;15.18;13.40;;;26.60;73.10;;;;;;5055969;28;20056;-76
2022/06/29 09:08:18;;;;;;;16.92;14.18;;;26.70;77.90;;;;;;5056153;28;20097;-77
2022/06/29 09:10:44;;;;;;;14.75;13.07;;;26.80;76.50;;;;;;5066863;28;20037;-76
2022/06/29 09:13:10;;;;;;;14.10;12.65;;;26.80;77.70;;;;;;5058032;28;20016;-76
2022/06/29 09:15:41;;;;;;;13.75;12.35;;;26.80;73.40;;;;;;5057774;28;20386;-76
2022/06/29 09:18:30;;;;;;;13.55;12.18;;;26.80;74.90;;;;;;5076118;28;20067;-76
2022/06/29 09:21:02;;;;;;;12.82;11.55;;;26.80;73.90;;;;;;5057967;28;20504;-76
2022/06/29 09:23:30;;;;;;;16.27;12.70;;;26.90;76.10;;;;;;5057909;28;20059;-77
2022/06/29 09:25:56;;;;;;;13.80;12.40;;;26.90;76.30;;;;;;5075752;28;20029;-76
2022/06/29 09:28:24;;;;;;;13.55;11.80;;;27.00;74.70;;;;;;5075497;28;20067;-77
2022/06/29 09:30:55;;;;;;;13.50;12.20;;;27.10;72.90;;;;;;5075648;28;20383;-76
2022/06/29 09:33:22;;;;;;;18.55;14.32;;;27.30;73.60;;;;;;5075735;28;20032;-76
2022/06/29 09:36:03;;;;;;;13.20;11.90;;;27.20;74.10;;;;;;5075707;28;20024;-77
2022/06/29 09:38:29;;;;;;;14.00;12.50;;;27.00;74.90;;;;;;5056219;28;20394;-77
2022/06/29 09:40:57;;;;;;;13.32;12.05;;;27.00;78.00;;;;;;5055562;28;20094;-76
2022/06/29 09:43:23;;;;;;;13.35;12.07;;;27.30;75.30;;;;;;5055458;28;20108;-77
2022/06/29 09:45:51;;;;;;;14.20;12.80;;;27.40;75.90;;;;;;5055383;28;20510;-77
2022/06/29 09:48:20;;;;;;;16.95;12.02;;;27.40;73.40;;;;;;5037505;28;20021;-76
2022/06/29 09:50:48;;;;;;;14.18;12.75;;;27.60;71.20;;;;;;5037496;28;20032;-76
2022/06/29 09:53:15;;;;;;;15.27;13.68;;;27.60;70.00;;;;;;5020802;28;20025;-77
2022/06/29 09:55:41;;;;;;;14.77;12.88;;;27.70;72.70;;;;;;5037326;28;20025;-77
2022/06/29 09:58:08;;;;;;;13.38;12.07;;;28.00;71.50;;;;;;5054276;28;20509;-76
2022/06/29 10:03:19;;;;;;;13.32;12.00;;;28.00;69.90;;;;;;5055303;28;20032;-76
2022/06/29 10:05:54;;;;;;;14.00;12.65;;;28.00;73.20;;;;;;5054901;28;20044;-76
2022/06/29 10:08:20;;;;;;;13.50;11.93;;;28.10;71.20;;;;;;5055001;28;20028;-76
2022/06/29 10:10:54;;;;;;;14.70;13.10;;;28.30;70.40;;;;;;5048878;28;20021;-76
2022/06/29 10:13:44;;;;;;;13.98;12.60;;;28.30;68.90;;;;;;5056884;28;20052;-76
2022/06/29 10:16:09;;;;;;;14.80;13.02;;;28.30;67.50;;;;;;5074024;28;20043;-76
2022/06/29 10:19:03;;;;;;;13.75;12.45;;;28.40;69.60;;;;;;5074733;28;20028;-76
2022/06/29 10:21:31;;;;;;;14.07;12.60;;;28.60;70.80;;;;;;5074932;28;20358;-77
2022/06/29 10:23:58;;;;;;;13.95;12.55;;;28.40;70.30;;;;;;5073981;28;20028;-76
2022/06/29 10:26:36;;;;;;;13.18;11.98;;;28.60;68.20;;;;;;5074636;28;20020;-77
2022/06/29 10:29:07;;;;;;;12.82;11.63;;;28.50;69.90;;;;;;5056552;28;20036;-76
2022/06/29 10:31:51;;;;;;;13.63;12.05;;;28.50;67.20;;;;;;5074278;28;20029;-76
2022/06/29 10:34:40;;;;;;;13.30;12.10;;;28.60;68.40;;;;;;5056293;28;20115;-76
2022/06/29 10:37:12;;;;;;;14.02;12.65;;;28.50;67.70;;;;;;5048237;28;20194;-77
2022/06/29 10:39:49;;;;;;;13.57;12.10;;;28.50;66.20;;;;;;5054260;28;20024;-76
2022/06/29 10:45:13;;;;;;;13.32;11.82;;;29.00;66.40;;;;;;5054175;28;20055;-77
2022/06/29 10:47:39;;;;;;;13.30;12.00;;;29.10;68.20;;;;;;5036527;28;20021;-77
2022/06/29 10:50:21;;;;;;;13.05;11.73;;;29.10;67.60;;;;;;5036032;28;20029;-75
2022/06/29 10:52:49;;;;;;;12.57;11.27;;;29.30;66.70;;;;;;5054212;28;20021;-76
2022/06/29 10:55:16;;;;;;;12.50;11.30;;;29.20;66.80;;;;;;5036088;28;20123;-76
2022/06/29 10:57:43;;;;;;;13.10;11.82;;;29.30;65.10;;;;;;5054003;28;20033;-76
2022/06/29 11:00:20;;;;;;;13.48;12.13;;;29.40;64.50;;;;;;5035911;28;20112;-76
2022/06/29 11:02:46;;;;;;;14.57;11.52;;;29.40;65.00;;;;;;5054143;28;20032;-76
2022/06/29 11:05:12;;;;;;;14.23;12.43;;;29.60;67.00;;;;;;5035854;28;20025;-76
2022/06/29 11:13:29;;;;;;;12.68;11.38;;;29.70;64.00;;;;;;5060754;28;20052;-76
2022/06/29 11:15:56;;;;;;;11.85;10.75;;;29.70;63.40;;;;;;5073653;28;20066;-76
2022/06/29 11:18:29;;;;;;;13.45;12.25;;;29.70;65.90;;;;;;5073461;28;20086;-76
2022/06/29 11:21:02;;;;;;;13.30;12.07;;;29.60;66.50;;;;;;5055680;28;20101;-76
2022/06/29 11:23:29;;;;;;;11.88;10.77;;;29.70;67.50;;;;;;5055648;28;20462;-76
2022/06/29 11:25:55;;;;;;;13.15;11.27;;;29.70;64.40;;;;;;5055476;28;20032;-76
2022/06/29 11:28:25;;;;;;;15.48;11.80;;;29.50;66.20;;;;;;5055690;28;20029;-76
2022/06/29 11:31:08;;;;;;;13.10;11.73;;;29.60;65.20;;;;;;5073394;28;20021;-76
2022/06/29 11:33:43;;;;;;;12.52;11.00;;;29.50;65.70;;;;;;5073487;28;20017;-77
2022/06/29 11:36:35;;;;;;;12.50;11.30;;;29.50;65.00;;;;;;5072968;28;20013;-76
2022/06/29 11:39:06;;;;;;;11.68;10.68;;;29.70;63.20;;;;;;5031734;28;20445;-77
2022/06/29 11:44:28;;;;;;;11.77;10.75;;;29.80;62.00;;;;;;5053810;28;20402;-77
2022/06/29 11:46:55;;;;;;;12.35;11.05;;;29.90;64.90;;;;;;5053427;28;20029;-76
2022/06/29 11:49:38;;;;;;;12.18;11.07;;;29.90;62.20;;;;;;5035570;28;20083;-76
2022/06/29 11:52:05;;;;;;;11.75;10.65;;;29.90;62.40;;;;;;5035299;28;20429;-76
2022/06/29 11:55:03;;;;;;;12.07;10.93;;;29.90;60.80;;;;;;5053310;28;20067;-76
2022/06/29 11:57:29;;;;;;;11.77;10.60;;;30.30;63.10;;;;;;4992549;28;20037;-76
2022/06/29 12:00:04;;;;;;;12.25;11.13;;;30.30;62.90;;;;;;5053319;28;20071;-76
2022/06/29 12:02:34;;;;;;;12.48;11.25;;;30.20;63.60;;;;;;5035721;28;20033;-76
2022/06/29 12:05:02;;;;;;;12.85;11.63;;;30.20;64.20;;;;;;5053325;28;20021;-77
2022/06/29 12:07:29;;;;;;;11.82;10.82;;;30.00;64.50;;;;;;5034928;28;20506;-76
2022/06/29 12:09:57;;;;;;;12.50;11.27;;;30.10;63.70;;;;;;5058601;28;20017;-76
2022/06/29 12:12:23;;;;;;;12.25;10.88;;;30.00;62.60;;;;;;5073184;28;20063;-75
2022/06/29 12:14:48;;;;;;;15.25;12.30;;;30.10;63.00;;;;;;5055095;28;20430;-76
2022/06/29 12:17:14;;;;;;;12.38;11.13;;;30.20;64.00;;;;;;5054874;28;20039;-76
2022/06/29 12:19:41;;;;;;;11.68;10.57;;;30.10;62.90;;;;;;5055124;28;20066;-76
2022/06/29 12:22:08;;;;;;;13.82;11.15;;;30.20;62.20;;;;;;5058624;28;20025;-76
2022/06/29 12:24:33;;;;;;;10.82;9.82;;;30.30;62.60;;;;;;5076982;28;20048;-76
2022/06/29 12:26:59;;;;;;;12.00;10.90;;;30.60;62.60;;;;;;5058987;28;20044;-77
2022/06/29 12:29:25;;;;;;;11.80;10.77;;;30.60;60.50;;;;;;5076913;28;20103;-76
2022/06/29 12:31:50;;;;;;;12.38;11.00;;;30.60;60.60;;;;;;5058955;28;20017;-76
2022/06/29 12:34:16;;;;;;;13.55;11.07;;;30.50;60.50;;;;;;5076863;28;20028;-76
2022/06/29 12:36:43;;;;;;;12.15;11.15;;;30.60;61.50;;;;;;5071047;28;20471;-76
2022/06/29 12:39:09;;;;;;;12.82;11.38;;;30.60;60.00;;;;;;5038583;28;20124;-77
2022/06/29 12:41:36;;;;;;;11.77;10.68;;;30.60;59.40;;;;;;5056551;28;20482;-76
2022/06/29 12:44:04;;;;;;;11.93;10.38;;;30.40;59.70;;;;;;5038663;28;20029;-76
2022/06/29 12:46:31;;;;;;;11.27;10.27;;;30.40;60.90;;;;;;5056542;28;20033;-77
2022/06/29 12:48:58;;;;;;;12.18;10.80;;;30.50;62.00;;;;;;5056690;28;20099;-77
2022/06/29 12:51:24;;;;;;;14.13;10.75;;;30.40;62.30;;;;;;5056531;28;20390;-76